Time;durP1;ratioP1;P1;durP2;ratioP2;P2;SDS_P1;SDS_P2;PMS_P1;PMS_P2;Temp;Humidity;BMP_temperature;BMP_pressure;BME280_temperature;BME280_humidity;BME280_pressure;Samples;Min_cycle;Max_cycle;Signal;HPM_P1;HPM_P2
2022/11/09 00:00:52;;;;;;;0.03;0.03;;;;;;;14.67;68.09;99610.47;5033780;28;20175;-75
2022/11/09 00:03:17;;;;;;;0.00;0.00;;;;;;;14.67;68.39;99601.41;5033450;28;20242;-72
2022/11/09 00:05:43;;;;;;;0.00;0.00;;;;;;;14.56;68.52;99603.91;5033485;28;20172;-72
2022/11/09 00:08:10;;;;;;;0.60;0.60;;;;;;;14.60;68.48;99596.53;5033351;28;20200;-75
2022/11/09 00:10:36;;;;;;;0.10;0.10;;;;;;;14.71;68.07;99611.31;5033830;28;20175;-74
2022/11/09 00:13:02;;;;;;;0.00;0.00;;;;;;;14.53;68.95;99601.91;5033357;28;20168;-74
2022/11/09 00:15:28;;;;;;;0.70;0.70;;;;;;;14.58;68.51;99599.66;5033440;28;20219;-74
2022/11/09 00:17:53;;;;;;;0.00;0.00;;;;;;;14.69;67.76;99594.41;5033296;28;20542;-74
2022/11/09 00:20:19;;;;;;;0.00;0.00;;;;;;;14.50;68.20;99594.38;5033035;28;20210;-72
2022/11/09 00:22:48;;;;;;;0.20;0.10;;;;;;;14.51;68.48;99590.47;5033355;28;20218;-73
2022/11/09 00:25:14;;;;;;;0.00;0.00;;;;;;;14.49;68.14;99592.78;5033329;28;20651;-72
2022/11/09 00:27:39;;;;;;;0.30;0.30;;;;;;;14.52;68.25;99592.06;5033195;28;20176;-74
2022/11/09 00:30:05;;;;;;;0.37;0.30;;;;;;;14.50;68.17;99597.13;5033026;28;20207;-73
2022/11/09 00:32:31;;;;;;;3.20;1.33;;;;;;;14.66;67.64;99592.38;5032953;28;20184;-73
2022/11/09 00:34:56;;;;;;;0.00;0.00;;;;;;;14.62;67.67;99594.25;5032821;28;20179;-74
2022/11/09 00:37:21;;;;;;;0.00;0.00;;;;;;;14.55;67.77;99585.84;5033324;28;20271;-77
2022/11/09 00:39:47;;;;;;;0.00;0.00;;;;;;;14.57;67.78;99581.56;5033204;28;20183;-76
2022/11/09 00:42:12;;;;;;;0.17;0.17;;;;;;;14.57;67.87;99589.03;5033048;28;20611;-75
2022/11/09 00:44:37;;;;;;;0.00;0.00;;;;;;;14.54;67.88;99589.75;5032597;28;20188;-73
2022/11/09 00:47:02;;;;;;;0.00;0.00;;;;;;;14.58;67.79;99594.16;5032817;28;20214;-75
2022/11/09 00:49:28;;;;;;;0.00;0.00;;;;;;;14.60;67.52;99596.53;5032731;28;20611;-72
2022/11/09 00:51:53;;;;;;;0.00;0.00;;;;;;;14.50;67.82;99586.91;5015062;28;20867;-73
2022/11/09 00:54:18;;;;;;;0.33;0.33;;;;;;;14.55;67.87;99586.63;5032628;28;20187;-76
2022/11/09 00:56:44;;;;;;;0.00;0.00;;;;;;;14.58;67.96;99585.13;5032807;28;20180;-75
2022/11/09 00:59:10;;;;;;;0.00;0.00;;;;;;;14.55;67.92;99578.38;5032625;28;20176;-77
2022/11/09 01:01:36;;;;;;;0.10;0.10;;;;;;;14.56;67.79;99582.72;5032516;28;20172;-73
2022/11/09 01:04:01;;;;;;;0.00;0.00;;;;;;;14.45;68.12;99572.63;5032366;28;20635;-75
2022/11/09 01:06:26;;;;;;;0.10;0.10;;;;;;;14.52;67.89;99581.84;5032894;28;20188;-73
2022/11/09 01:08:52;;;;;;;0.00;0.00;;;;;;;14.53;68.26;99580.69;5032458;28;20227;-74
2022/11/09 01:11:19;;;;;;;0.00;0.00;;;;;;;14.63;67.69;99581.31;5032390;28;20184;-78
2022/11/09 01:13:45;;;;;;;0.00;0.00;;;;;;;14.63;67.94;99584.84;5032247;28;20180;-74
2022/11/09 01:16:13;;;;;;;0.50;0.50;;;;;;;14.51;68.46;99588.50;5032231;28;20176;-73
2022/11/09 01:18:39;;;;;;;0.00;0.00;;;;;;;14.48;68.34;99577.44;5032119;28;20307;-73
2022/11/09 01:21:07;;;;;;;0.13;0.13;;;;;;;14.55;68.41;99574.84;5032101;28;20180;-77
2022/11/09 01:23:33;;;;;;;0.00;0.00;;;;;;;14.58;68.29;99579.63;5032056;28;20182;-74
2022/11/09 01:26:05;;;;;;;2.00;0.30;;;;;;;14.51;68.70;99577.53;5032199;28;20266;-72
2022/11/09 01:28:31;;;;;;;0.10;0.10;;;;;;;14.54;68.52;99576.78;5031909;28;20553;-73
2022/11/09 01:31:00;;;;;;;0.20;0.20;;;;;;;14.64;68.10;99569.16;5031948;28;20184;-73
2022/11/09 01:33:26;;;;;;;0.00;0.00;;;;;;;14.69;68.06;99579.84;5031855;28;20603;-72
2022/11/09 01:35:51;;;;;;;0.00;0.00;;;;;;;14.65;67.96;99584.50;5032040;28;20229;-74
2022/11/09 01:38:16;;;;;;;0.00;0.00;;;;;;;14.64;68.25;99580.16;5031806;28;20187;-73
2022/11/09 01:40:42;;;;;;;0.53;0.30;;;;;;;14.67;68.05;99577.47;5031913;28;20183;-72
2022/11/09 01:43:19;;;;;;;0.00;0.00;;;;;;;14.72;67.99;99581.88;5031652;28;20530;-74
2022/11/09 01:45:52;;;;;;;0.00;0.00;;;;;;;14.51;68.63;99576.72;5031679;28;20195;-74
2022/11/09 01:48:44;;;;;;;0.23;0.20;;;;;;;14.51;68.92;99571.22;5031875;28;20292;-73
2022/11/09 01:51:30;;;;;;;0.00;0.00;;;;;;;14.60;68.72;99571.81;5031701;28;20207;-73
2022/11/09 01:54:05;;;;;;;0.00;0.00;;;;;;;14.48;69.01;99571.94;5031432;28;20165;-72
2022/11/09 01:56:31;;;;;;;0.00;0.00;;;;;;;14.48;69.18;99577.44;5031198;28;20250;-74
2022/11/09 01:59:01;;;;;;;0.00;0.00;;;;;;;14.53;69.28;99575.19;5031795;28;20194;-73
2022/11/09 02:01:27;;;;;;;0.00;0.00;;;;;;;14.61;68.95;99576.16;5031402;28;20271;-74
2022/11/09 02:04:00;;;;;;;0.00;0.00;;;;;;;14.54;69.11;99582.28;5031544;28;20274;-76
2022/11/09 02:06:28;;;;;;;0.00;0.00;;;;;;;14.54;69.11;99576.00;5031626;28;20172;-72
2022/11/09 02:09:22;;;;;;;0.17;0.17;;;;;;;14.61;68.98;99586.34;5031249;28;20203;-73
2022/11/09 02:11:47;;;;;;;0.30;0.30;;;;;;;14.62;68.94;99577.75;5022991;28;20195;-74
2022/11/09 02:14:12;;;;;;;0.00;0.00;;;;;;;14.56;69.22;99577.22;5031134;28;20172;-72
2022/11/09 02:16:39;;;;;;;0.00;0.00;;;;;;;14.61;69.24;99578.09;5030927;28;21022;-73
2022/11/09 02:19:05;;;;;;;0.00;0.00;;;;;;;14.61;69.20;99580.84;5031270;28;20528;-72
2022/11/09 02:21:31;;;;;;;0.00;0.00;;;;;;;14.61;68.73;99581.66;5030919;28;20172;-73
2022/11/09 02:23:57;;;;;;;0.00;0.00;;;;;;;14.62;69.10;99572.25;5031062;28;20172;-74
2022/11/09 02:26:47;;;;;;;5.73;0.60;;;;;;;14.61;68.96;99567.94;5031104;28;20222;-73
2022/11/09 02:29:17;;;;;;;0.47;0.33;;;;;;;14.63;69.41;99568.34;5019923;28;20731;-73
2022/11/09 02:31:49;;;;;;;0.40;0.40;;;;;;;14.56;69.62;99562.69;5031080;28;20168;-74
2022/11/09 02:34:18;;;;;;;0.00;0.00;;;;;;;14.53;69.51;99563.41;5031162;28;20163;-73
2022/11/09 02:36:44;;;;;;;0.30;0.30;;;;;;;14.57;69.90;99562.31;5030939;28;20176;-74
2022/11/09 02:39:11;;;;;;;0.00;0.00;;;;;;;14.57;69.91;99559.56;5030843;28;20183;-75
2022/11/09 02:41:45;;;;;;;0.20;0.10;;;;;;;14.54;69.92;99567.75;5030811;28;20642;-72
2022/11/09 02:44:12;;;;;;;0.00;0.00;;;;;;;14.55;70.42;99559.16;5030813;28;20178;-74
2022/11/09 02:46:37;;;;;;;0.00;0.00;;;;;;;14.58;70.15;99558.41;5030818;28;20184;-73
2022/11/09 02:49:03;;;;;;;0.00;0.00;;;;;;;14.56;70.38;99549.75;5030875;28;20195;-75
2022/11/09 02:51:29;;;;;;;0.00;0.00;;;;;;;14.55;70.26;99548.16;5030962;28;20534;-73
2022/11/09 02:53:54;;;;;;;14.70;0.43;;;;;;;14.63;70.49;99554.59;5030979;28;20183;-73
2022/11/09 02:56:19;;;;;;;0.10;0.10;;;;;;;14.65;69.99;99554.25;5030822;28;20176;-74
2022/11/09 02:58:44;;;;;;;0.30;0.30;;;;;;;14.67;69.78;99557.44;5030755;28;20207;-72
2022/11/09 03:01:10;;;;;;;0.77;0.77;;;;;;;14.68;69.86;99559.81;5030662;28;20623;-73
2022/11/09 03:03:35;;;;;;;0.20;0.20;;;;;;;14.64;70.18;99541.66;5030653;28;20172;-73
2022/11/09 03:06:01;;;;;;;0.40;0.40;;;;;;;14.57;70.25;99529.34;5030697;28;20168;-72
2022/11/09 03:08:26;;;;;;;0.00;0.00;;;;;;;14.64;69.89;99545.19;5031799;28;20198;-72
2022/11/09 03:10:51;;;;;;;0.00;0.00;;;;;;;14.55;70.55;99541.84;5034758;28;20202;-73
2022/11/09 03:13:17;;;;;;;2.73;0.67;;;;;;;14.58;70.10;99538.38;5034768;28;20187;-72
2022/11/09 03:15:42;;;;;;;0.60;0.60;;;;;;;14.65;69.77;99546.00;5034703;28;20318;-75
2022/11/09 03:18:07;;;;;;;0.20;0.00;;;;;;;14.63;69.95;99543.63;5034835;28;20862;-73
2022/11/09 03:20:32;;;;;;;0.73;0.73;;;;;;;14.66;70.04;99553.09;5034298;28;20179;-74
2022/11/09 03:22:59;;;;;;;0.50;0.50;;;;;;;14.64;70.31;99536.16;5034634;28;20176;-72
2022/11/09 03:25:26;;;;;;;0.17;0.10;;;;;;;14.64;69.95;99538.91;5034387;28;20179;-73
2022/11/09 03:28:03;;;;;;;0.40;0.40;;;;;;;14.70;69.60;99532.75;5034336;28;20179;-73
2022/11/09 03:30:28;;;;;;;0.00;0.00;;;;;;;14.65;70.10;99522.06;5016498;28;20183;-72
2022/11/09 03:33:01;;;;;;;0.60;0.60;;;;;;;14.63;70.21;99516.13;5034114;28;20218;-72
2022/11/09 03:35:27;;;;;;;0.53;0.53;;;;;;;14.71;69.76;99534.34;5034299;28;20670;-72
2022/11/09 03:37:52;;;;;;;0.60;0.20;;;;;;;14.71;69.94;99539.84;5034021;28;20172;-74
2022/11/09 03:40:18;;;;;;;0.10;0.10;;;;;;;14.64;70.51;99525.16;5034146;28;20182;-72
2022/11/09 03:42:45;;;;;;;0.30;0.30;;;;;;;14.62;70.44;99532.97;5033911;28;20172;-75
2022/11/09 03:45:12;;;;;;;0.40;0.40;;;;;;;14.63;70.59;99538.13;5033850;28;20270;-77
2022/11/09 03:47:42;;;;;;;0.40;0.40;;;;;;;14.60;70.69;99533.31;5033962;28;20184;-80
2022/11/09 03:50:08;;;;;;;0.30;0.30;;;;;;;14.59;70.69;99540.75;5033899;28;20261;-76
2022/11/09 03:52:33;;;;;;;0.40;0.30;;;;;;;14.57;71.02;99545.03;5034034;28;20196;-75
2022/11/09 03:54:59;;;;;;;0.10;0.10;;;;;;;14.50;70.92;99545.69;5033862;28;20550;-80
2022/11/09 03:57:24;;;;;;;0.43;0.43;;;;;;;14.47;71.29;99538.16;5033703;28;20192;-78
2022/11/09 03:59:49;;;;;;;0.63;0.33;;;;;;;14.48;71.43;99548.00;5033672;28;20176;-80
2022/11/09 04:02:15;;;;;;;8.47;0.60;;;;;;;14.45;71.72;99548.69;5033638;28;20172;-82
2022/11/09 04:04:40;;;;;;;0.13;0.13;;;;;;;14.41;71.87;99553.31;5033526;28;20179;-81
2022/11/09 04:07:05;;;;;;;0.20;0.10;;;;;;;14.35;72.47;99554.75;5033904;28;20171;-81
2022/11/09 04:09:30;;;;;;;0.00;0.00;;;;;;;14.31;72.90;99545.59;5033428;28;20685;-78
2022/11/09 04:11:56;;;;;;;0.47;0.47;;;;;;;14.31;72.70;99545.59;5033440;28;20218;-79
2022/11/09 04:14:21;;;;;;;0.03;0.03;;;;;;;14.29;73.06;99536.94;5015404;28;20604;-80
2022/11/09 04:16:46;;;;;;;0.00;0.00;;;;;;;14.26;73.40;99537.66;5033448;28;20172;-81
2022/11/09 04:19:12;;;;;;;0.00;0.00;;;;;;;14.21;73.51;99540.69;5032985;28;20180;-77
2022/11/09 04:21:37;;;;;;;0.00;0.00;;;;;;;14.22;74.28;99542.28;5033226;28;20188;-78
2022/11/09 04:24:02;;;;;;;0.67;0.67;;;;;;;14.21;74.23;99546.19;5033502;28;20186;-77
2022/11/09 04:26:28;;;;;;;0.50;0.50;;;;;;;14.18;74.56;99536.72;5033090;28;20588;-75
2022/11/09 04:28:53;;;;;;;6.07;0.87;;;;;;;14.17;74.49;99548.81;5033283;28;20234;-74
2022/11/09 04:31:18;;;;;;;0.00;0.00;;;;;;;14.14;74.87;99546.78;5033264;28;20199;-80
2022/11/09 04:33:48;;;;;;;0.10;0.10;;;;;;;14.15;75.00;99542.91;5033123;28;20176;-78
2022/11/09 04:36:13;;;;;;;0.17;0.17;;;;;;;14.13;75.25;99547.16;5033070;28;20593;-80
2022/11/09 04:38:38;;;;;;;0.00;0.00;;;;;;;14.11;75.66;99542.03;5032966;28;20182;-80
2022/11/09 04:41:04;;;;;;;0.40;0.23;;;;;;;14.10;75.92;99545.94;5032772;28;20172;-79
2022/11/09 04:43:29;;;;;;;0.10;0.03;;;;;;;14.08;76.06;99550.97;5032810;28;20483;-80
2022/11/09 04:45:58;;;;;;;0.50;0.50;;;;;;;14.05;76.38;99542.66;5032697;28;20309;-81
2022/11/09 04:48:24;;;;;;;0.27;0.27;;;;;;;14.06;76.66;99544.25;5032953;28;20195;-81
2022/11/09 04:50:49;;;;;;;0.10;0.10;;;;;;;14.06;76.82;99550.56;5032752;28;20178;-72
2022/11/09 04:53:14;;;;;;;0.33;0.33;;;;;;;14.03;77.29;99547.69;5032709;28;20267;-78
2022/11/09 04:55:40;;;;;;;0.43;0.43;;;;;;;13.98;77.50;99548.78;5032553;28;20223;-78
2022/11/09 04:58:05;;;;;;;1.13;0.30;;;;;;;13.96;77.57;99551.09;5032719;28;20172;-77
2022/11/09 05:00:31;;;;;;;0.00;0.00;;;;;;;13.83;78.21;99541.34;5032584;28;20267;-80
2022/11/09 05:03:01;;;;;;;0.00;0.00;;;;;;;13.83;78.54;99544.09;5032370;28;20682;-79
2022/11/09 05:05:26;;;;;;;0.10;0.00;;;;;;;13.86;78.69;99552.41;5032600;28;20179;-79
2022/11/09 05:07:52;;;;;;;0.37;0.37;;;;;;;13.82;78.94;99543.28;5032464;28;20164;-81
2022/11/09 05:10:17;;;;;;;0.57;0.57;;;;;;;13.83;79.35;99542.13;5032127;28;20570;-78
2022/11/09 05:12:42;;;;;;;0.27;0.27;;;;;;;13.83;79.38;99546.84;5032681;28;20183;-81
2022/11/09 05:15:08;;;;;;;0.00;0.00;;;;;;;13.83;79.48;99549.59;5032368;28;20175;-79
2022/11/09 05:17:33;;;;;;;0.00;0.00;;;;;;;13.77;79.88;99549.06;5032216;28;20524;-78
2022/11/09 05:19:58;;;;;;;0.00;0.00;;;;;;;13.79;80.06;99545.97;5032236;28;20182;-77
2022/11/09 05:25:08;;;;;;;0.63;0.63;;;;;;;13.76;80.71;99549.41;5032126;28;20257;-81
2022/11/09 05:27:33;;;;;;;0.53;0.30;;;;;;;13.71;80.76;99553.22;5032022;28;20229;-80
2022/11/09 05:29:58;;;;;;;0.00;0.00;;;;;;;13.62;81.90;99549.84;5032007;28;20219;-79
2022/11/09 05:32:24;;;;;;;0.40;0.40;;;;;;;13.61;81.41;99546.31;5031259;28;20193;-82
2022/11/09 05:34:49;;;;;;;0.47;0.37;;;;;;;13.59;81.75;99551.34;5031769;28;20172;-79
2022/11/09 05:37:16;;;;;;;0.60;0.60;;;;;;;13.64;81.99;99553.84;5031856;28;20180;-80
2022/11/09 05:39:41;;;;;;;0.10;0.10;;;;;;;13.62;81.86;99547.13;5031776;28;20187;-80
2022/11/09 05:42:09;;;;;;;3.97;0.70;;;;;;;13.64;82.17;99553.03;5031901;28;20195;-77
2022/11/09 05:44:34;;;;;;;0.80;0.80;;;;;;;13.63;81.83;99557.75;5031668;28;20516;-79
2022/11/09 05:47:00;;;;;;;0.00;0.00;;;;;;;13.63;82.33;99548.72;5031809;28;20257;-81
2022/11/09 05:49:25;;;;;;;0.00;0.00;;;;;;;13.58;82.22;99546.19;5031348;28;20229;-77
2022/11/09 05:51:50;;;;;;;0.00;0.00;;;;;;;13.51;82.72;99552.31;5031613;28;20234;-81
2022/11/09 05:54:15;;;;;;;0.20;0.20;;;;;;;13.55;82.53;99552.41;5031560;28;20172;-81
2022/11/09 05:56:41;;;;;;;0.10;0.10;;;;;;;13.47;83.44;99564.38;5031894;28;20179;-81
2022/11/09 05:59:07;;;;;;;0.00;0.00;;;;;;;13.48;83.29;99558.53;5031426;28;20855;-78
2022/11/09 06:01:32;;;;;;;0.00;0.00;;;;;;;13.44;83.33;99565.84;5031453;28;20168;-78
2022/11/09 06:03:58;;;;;;;0.00;0.00;;;;;;;13.51;83.54;99566.03;5031088;28;20279;-81
2022/11/09 06:06:23;;;;;;;0.00;0.00;;;;;;;13.55;83.49;99580.66;5031453;28;20183;-80
2022/11/09 06:08:49;;;;;;;0.33;0.33;;;;;;;13.52;83.53;99570.38;5031150;28;20294;-82
2022/11/09 06:11:15;;;;;;;0.00;0.00;;;;;;;13.44;83.86;99576.81;5031240;28;20176;-81
2022/11/09 06:13:40;;;;;;;0.00;0.00;;;;;;;13.31;84.42;99572.56;5031374;28;20633;-79
2022/11/09 06:16:06;;;;;;;0.10;0.10;;;;;;;13.44;84.43;99593.28;5031166;28;20175;-77
2022/11/09 06:18:34;;;;;;;0.00;0.00;;;;;;;13.40;84.52;99586.91;5031395;28;20186;-81
2022/11/09 06:21:02;;;;;;;0.60;0.60;;;;;;;13.47;84.58;99587.13;5013017;28;20184;-73
2022/11/09 06:23:29;;;;;;;0.20;0.20;;;;;;;13.46;84.51;99591.00;5030933;28;20180;-78
2022/11/09 06:26:08;;;;;;;0.00;0.00;;;;;;;13.35;85.05;99592.66;5046658;28;20234;-72
2022/11/09 06:28:34;;;;;;;0.47;0.47;;;;;;;13.42;85.06;99590.09;5032889;28;20312;-72
2022/11/09 06:31:00;;;;;;;0.20;0.20;;;;;;;13.46;84.93;99584.72;5034143;28;20204;-72
2022/11/09 06:33:28;;;;;;;0.00;0.00;;;;;;;13.32;84.87;99580.44;5032126;28;20172;-73
2022/11/09 06:35:55;;;;;;;0.00;0.00;;;;;;;13.32;85.78;99591.41;5031051;28;20178;-73
2022/11/09 06:38:21;;;;;;;0.00;0.00;;;;;;;13.29;85.58;99592.09;5030936;28;20179;-76
2022/11/09 06:40:50;;;;;;;1.20;1.00;;;;;;;13.38;85.35;99598.25;5030937;28;20740;-73
2022/11/09 06:43:15;;;;;;;0.00;0.00;;;;;;;13.39;85.65;99604.53;5030563;28;20538;-74
2022/11/09 06:45:40;;;;;;;0.90;0.90;;;;;;;13.30;85.66;99601.13;5030704;28;20191;-73
2022/11/09 06:48:06;;;;;;;0.00;0.00;;;;;;;13.37;85.87;99596.66;5031271;28;20180;-72
2022/11/09 06:50:32;;;;;;;0.00;0.00;;;;;;;13.40;85.48;99597.88;5030975;28;20234;-72
2022/11/09 06:53:00;;;;;;;0.00;0.00;;;;;;;13.28;86.25;99604.22;5030520;28;20198;-76
2022/11/09 06:55:26;;;;;;;0.00;0.00;;;;;;;13.08;87.14;99594.22;5030722;28;20543;-73
2022/11/09 06:57:51;;;;;;;0.00;0.00;;;;;;;13.17;87.24;99605.88;5030502;28;20258;-72
2022/11/09 07:00:17;;;;;;;0.00;0.00;;;;;;;13.24;86.98;99619.00;5030919;28;20267;-73
2022/11/09 07:02:42;;;;;;;0.47;0.33;;;;;;;13.30;87.23;99617.59;5030542;28;20172;-73
2022/11/09 07:05:08;;;;;;;0.00;0.00;;;;;;;13.29;86.90;99621.47;5030749;28;20634;-73
2022/11/09 07:07:33;;;;;;;0.20;0.20;;;;;;;13.27;87.10;99624.56;5030553;28;20263;-73
2022/11/09 07:09:59;;;;;;;0.00;0.00;;;;;;;13.25;87.60;99621.38;5030798;28;20204;-73
2022/11/09 07:12:24;;;;;;;0.00;0.00;;;;;;;13.34;87.33;99624.00;5030460;28;20533;-73
2022/11/09 07:14:49;;;;;;;0.20;0.10;;;;;;;13.47;86.96;99638.47;5030398;28;20175;-72
2022/11/09 07:17:15;;;;;;;0.40;0.40;;;;;;;13.53;86.46;99631.56;5030549;28;20176;-72
2022/11/09 07:19:40;;;;;;;0.03;0.03;;;;;;;13.55;86.33;99630.03;5030528;28;20179;-73
2022/11/09 07:22:05;;;;;;;0.00;0.00;;;;;;;13.52;86.44;99636.25;5030209;28;20191;-73
2022/11/09 07:24:31;;;;;;;0.07;0.07;;;;;;;13.45;86.55;99633.28;5029845;28;20230;-74
2022/11/09 07:26:56;;;;;;;0.20;0.20;;;;;;;13.55;86.89;99640.22;5030470;28;20172;-82
2022/11/09 07:29:21;;;;;;;0.00;0.00;;;;;;;13.55;86.57;99629.25;5029759;28;20674;-78
2022/11/09 07:31:47;;;;;;;0.10;0.10;;;;;;;13.60;86.61;99632.56;5030731;28;20194;-77
2022/11/09 07:34:12;;;;;;;0.00;0.00;;;;;;;13.52;86.81;99629.97;5030220;28;20230;-79
2022/11/09 07:36:37;;;;;;;0.80;0.80;;;;;;;13.69;86.19;99638.66;5030393;28;20184;-79
2022/11/09 07:39:03;;;;;;;0.13;0.13;;;;;;;13.75;85.76;99639.22;5030149;28;20334;-79
2022/11/09 07:41:28;;;;;;;0.20;0.20;;;;;;;13.78;85.62;99640.47;5030374;28;20176;-76
2022/11/09 07:43:54;;;;;;;0.00;0.00;;;;;;;13.81;85.60;99634.25;5030484;28;20214;-78
2022/11/09 07:46:19;;;;;;;0.00;0.00;;;;;;;13.87;85.56;99639.13;5030086;28;20215;-78
2022/11/09 07:48:44;;;;;;;0.20;0.20;;;;;;;13.90;84.99;99641.19;5030091;28;20218;-80
2022/11/09 07:51:09;;;;;;;1.63;0.63;;;;;;;13.99;85.88;99654.72;5030191;28;20172;-77
2022/11/09 07:53:35;;;;;;;0.30;0.30;;;;;;;14.08;84.91;99649.88;5029965;28;20206;-79
2022/11/09 07:56:02;;;;;;;0.00;0.00;;;;;;;14.13;84.35;99651.53;5033577;28;20175;-78
2022/11/09 07:58:28;;;;;;;2.03;0.80;;;;;;;14.22;83.88;99650.22;5033936;28;20225;-79
2022/11/09 08:00:54;;;;;;;0.00;0.00;;;;;;;14.22;83.61;99646.69;5033625;28;20176;-78
2022/11/09 08:03:20;;;;;;;0.63;0.63;;;;;;;14.27;83.55;99647.19;5033591;28;20183;-79
2022/11/09 08:05:46;;;;;;;0.10;0.10;;;;;;;14.28;83.65;99648.78;5033533;28;20286;-79
2022/11/09 08:08:12;;;;;;;0.00;0.00;;;;;;;14.33;83.16;99653.25;5033354;28;20262;-80
2022/11/09 08:10:38;;;;;;;0.00;0.00;;;;;;;14.32;83.37;99654.41;5033325;28;20187;-83
2022/11/09 08:13:07;;;;;;;0.10;0.10;;;;;;;14.33;83.75;99668.94;5033242;28;20195;-80
2022/11/09 08:15:33;;;;;;;0.00;0.00;;;;;;;14.30;84.15;99665.72;5033938;28;20218;-81
2022/11/09 08:18:04;;;;;;;1.13;0.40;;;;;;;14.32;83.81;99651.66;5033348;28;20210;-78
2022/11/09 08:20:30;;;;;;;0.10;0.10;;;;;;;14.33;83.62;99650.50;5033006;28;20221;-77
2022/11/09 08:22:56;;;;;;;0.00;0.00;;;;;;;14.26;83.68;99648.34;5033194;28;20267;-77
2022/11/09 08:25:22;;;;;;;0.13;0.13;;;;;;;14.29;83.72;99655.88;5033341;28;20225;-87
2022/11/09 08:27:47;;;;;;;0.00;0.00;;;;;;;14.26;83.91;99659.34;5033185;28;20176;-80
2022/11/09 08:30:15;;;;;;;0.40;0.40;;;;;;;14.21;84.35;99656.88;5033438;28;20199;-79
2022/11/09 08:32:42;;;;;;;0.00;0.00;;;;;;;14.18;84.75;99654.84;5032937;28;20176;-78
2022/11/09 08:35:09;;;;;;;0.30;0.30;;;;;;;14.22;84.95;99663.16;5033311;28;20175;-79
2022/11/09 08:37:35;;;;;;;0.27;0.27;;;;;;;14.20;84.74;99657.22;5048641;28;20203;-80
2022/11/09 08:40:00;;;;;;;0.00;0.00;;;;;;;14.25;84.57;99662.44;5033142;28;20176;-80
2022/11/09 08:42:26;;;;;;;1.37;0.40;;;;;;;14.29;84.60;99663.31;5033260;28;20237;-78
2022/11/09 08:44:51;;;;;;;0.30;0.30;;;;;;;14.23;85.06;99668.31;5032691;28;20184;-76
2022/11/09 08:47:16;;;;;;;0.93;0.30;;;;;;;14.23;85.95;99681.25;5032713;28;20595;-74
2022/11/09 08:49:43;;;;;;;0.43;0.43;;;;;;;14.06;88.29;99676.91;5032688;28;20603;-77
2022/11/09 08:52:08;;;;;;;0.20;0.20;;;;;;;13.83;91.70;99684.91;5048322;28;20210;-74
2022/11/09 08:54:35;;;;;;;0.67;0.23;;;;;;;13.61;94.53;99683.56;5032578;28;20264;-72
2022/11/09 08:57:00;;;;;;;0.30;0.30;;;;;;;13.49;96.34;99677.31;5032690;28;20588;-75
2022/11/09 08:59:26;;;;;;;0.10;0.10;;;;;;;13.44;98.02;99686.56;5032611;28;20254;-72
2022/11/09 09:01:51;;;;;;;0.00;0.00;;;;;;;13.36;99.68;99674.63;5032526;28;20167;-71
2022/11/09 09:04:16;;;;;;;0.70;0.70;;;;;;;13.29;100.00;99684.56;5032559;28;20179;-74
2022/11/09 09:06:42;;;;;;;0.80;0.30;;;;;;;13.09;100.00;99689.06;5031271;28;20623;-72
2022/11/09 09:09:07;;;;;;;0.93;0.50;;;;;;;12.94;100.00;99687.84;5032243;28;20199;-73
2022/11/09 09:11:32;;;;;;;0.63;0.63;;;;;;;12.79;100.00;99677.59;5032469;28;20172;-73
2022/11/09 09:13:58;;;;;;;0.30;0.30;;;;;;;12.69;100.00;99683.53;5032032;28;20211;-74
2022/11/09 09:16:24;;;;;;;0.00;0.00;;;;;;;12.64;100.00;99670.88;5032286;28;20702;-74
2022/11/09 09:18:49;;;;;;;0.30;0.30;;;;;;;12.63;100.00;99666.53;5032159;28;20184;-72
2022/11/09 09:21:14;;;;;;;0.00;0.00;;;;;;;12.61;100.00;99665.28;5032152;28;20618;-73
2022/11/09 09:23:40;;;;;;;0.10;0.10;;;;;;;12.63;100.00;99655.56;5032286;28;20180;-73
2022/11/09 09:26:05;;;;;;;0.00;0.00;;;;;;;12.66;100.00;99652.13;5032083;28;20199;-72
2022/11/09 09:28:31;;;;;;;0.20;0.20;;;;;;;12.67;100.00;99650.19;5031858;28;20196;-76
2022/11/09 09:30:58;;;;;;;0.30;0.30;;;;;;;12.65;100.00;99657.97;5031992;28;20182;-73
2022/11/09 09:33:24;;;;;;;5.53;4.43;;;;;;;12.59;100.00;99670.31;5031820;28;20560;-73
2022/11/09 09:35:50;;;;;;;2.97;1.73;;;;;;;12.47;100.00;99674.66;5031914;28;20258;-73
2022/11/09 09:38:15;;;;;;;1.77;1.57;;;;;;;12.36;100.00;99673.50;5031925;28;20449;-73
2022/11/09 09:41:04;;;;;;;3.30;1.60;;;;;;;12.26;100.00;99667.66;5031766;28;20180;-73
2022/11/09 09:43:36;;;;;;;0.63;0.60;;;;;;;12.14;100.00;99660.22;5031074;28;20635;-73
2022/11/09 09:46:05;;;;;;;1.53;0.80;;;;;;;12.03;100.00;99662.63;5031612;28;20191;-73
2022/11/09 09:48:47;;;;;;;1.33;1.23;;;;;;;11.95;100.00;99660.78;5031565;28;20282;-73
2022/11/09 09:51:48;;;;;;;1.20;1.10;;;;;;;11.93;100.00;99662.28;5031564;28;20658;-72
2022/11/09 09:54:20;;;;;;;0.77;0.53;;;;;;;11.89;100.00;99673.91;5031549;28;20178;-73
2022/11/09 09:56:48;;;;;;;0.27;0.27;;;;;;;11.90;100.00;99677.44;5031524;28;20259;-78
2022/11/09 09:59:23;;;;;;;0.83;0.83;;;;;;;11.91;100.00;99679.03;5031536;28;20179;-74
2022/11/09 10:01:48;;;;;;;0.30;0.30;;;;;;;11.93;100.00;99689.66;5031444;28;20186;-72
2022/11/09 10:04:20;;;;;;;0.00;0.00;;;;;;;11.89;100.00;99684.84;5031124;28;20172;-74
2022/11/09 10:06:57;;;;;;;0.00;0.00;;;;;;;11.90;100.00;99688.38;5031538;28;20254;-72
2022/11/09 10:09:35;;;;;;;0.07;0.07;;;;;;;11.89;100.00;99679.38;5031178;28;20214;-75
2022/11/09 10:12:25;;;;;;;0.00;0.00;;;;;;;12.00;100.00;99676.19;5031311;28;20168;-78
2022/11/09 10:14:53;;;;;;;1.13;0.30;;;;;;;11.98;100.00;99675.72;5029787;28;20177;-73
2022/11/09 10:17:52;;;;;;;0.10;0.10;;;;;;;12.02;100.00;99682.94;5027154;28;20275;-73
2022/11/09 10:20:37;;;;;;;0.00;0.00;;;;;;;12.10;100.00;99670.28;5030878;28;20175;-72
2022/11/09 10:23:40;;;;;;;0.17;0.17;;;;;;;12.09;100.00;99676.91;5031272;28;20167;-73
2022/11/09 10:26:26;;;;;;;0.70;0.70;;;;;;;12.12;100.00;99684.44;5031071;28;20355;-73
2022/11/09 10:28:59;;;;;;;0.33;0.10;;;;;;;12.15;100.00;99694.69;5013287;28;20350;-74
2022/11/09 10:31:29;;;;;;;0.43;0.43;;;;;;;12.15;100.00;99695.53;5030881;28;20662;-67
2022/11/09 10:33:59;;;;;;;0.30;0.30;;;;;;;12.13;100.00;99686.03;5030809;28;20185;-72
2022/11/09 10:36:50;;;;;;;0.27;0.20;;;;;;;12.05;100.00;99695.94;5031000;28;20633;-75
2022/11/09 10:39:16;;;;;;;0.20;0.10;;;;;;;12.02;100.00;99693.09;5030013;28;20333;-77
2022/11/09 10:41:45;;;;;;;0.43;0.40;;;;;;;12.02;100.00;99704.84;5030832;28;20258;-77
2022/11/09 10:44:14;;;;;;;0.00;0.00;;;;;;;12.00;100.00;99678.91;5030717;28;20550;-76
2022/11/09 10:47:01;;;;;;;0.00;0.00;;;;;;;11.99;100.00;99696.50;5030745;28;20187;-77
2022/11/09 10:49:26;;;;;;;0.10;0.10;;;;;;;11.99;100.00;99696.50;5030529;28;20191;-76
2022/11/09 10:51:52;;;;;;;0.63;0.63;;;;;;;11.97;100.00;99685.88;5030766;28;20168;-77
2022/11/09 10:54:20;;;;;;;0.50;0.20;;;;;;;12.02;100.00;99695.84;5030544;28;20179;-72
2022/11/09 10:57:16;;;;;;;1.03;0.33;;;;;;;12.05;100.00;99685.00;5030657;28;20183;-72
2022/11/09 10:59:53;;;;;;;0.10;0.10;;;;;;;12.14;100.00;99687.63;5030478;28;20172;-73
2022/11/09 11:02:25;;;;;;;0.10;0.10;;;;;;;12.26;100.00;99695.06;5030622;28;20172;-76
2022/11/09 11:04:51;;;;;;;0.23;0.23;;;;;;;12.39;100.00;99688.44;5030502;28;20250;-76
2022/11/09 11:07:21;;;;;;;0.20;0.20;;;;;;;12.51;100.00;99692.00;5030594;28;20172;-77
2022/11/09 11:09:46;;;;;;;0.30;0.30;;;;;;;12.66;100.00;99698.72;5030428;28;20191;-77
2022/11/09 11:12:16;;;;;;;0.87;0.77;;;;;;;12.76;100.00;99698.28;5030530;28;20173;-76
2022/11/09 11:14:43;;;;;;;0.60;0.60;;;;;;;12.96;100.00;99701.19;5030315;28;20184;-75
2022/11/09 11:17:26;;;;;;;0.10;0.10;;;;;;;12.87;100.00;99701.31;5030564;28;20182;-76
2022/11/09 11:19:51;;;;;;;1.90;0.20;;;;;;;12.79;100.00;99694.03;5030431;28;20176;-76
2022/11/09 11:22:26;;;;;;;0.60;0.20;;;;;;;12.84;100.00;99704.75;5030078;28;20175;-76
2022/11/09 11:25:21;;;;;;;0.00;0.00;;;;;;;13.00;100.00;99699.38;5030616;28;20179;-76
2022/11/09 11:28:01;;;;;;;0.00;0.00;;;;;;;13.10;100.00;99702.44;5024812;28;20203;-77
2022/11/09 11:30:35;;;;;;;0.00;0.00;;;;;;;13.25;100.00;99700.13;5033008;28;20298;-77
2022/11/09 11:33:01;;;;;;;2.17;0.60;;;;;;;13.19;100.00;99688.63;5034245;28;20159;-76
2022/11/09 11:35:35;;;;;;;0.07;0.07;;;;;;;13.10;100.00;99691.47;5034298;28;20528;-78
2022/11/09 11:38:17;;;;;;;0.60;0.60;;;;;;;13.11;100.00;99701.28;5034393;28;20172;-78